createdAt,value
2023-03-02T00:01:09.568Z,-0.30
2023-03-02T00:03:39.134Z,-0.31
2023-03-02T00:06:07.334Z,-0.33
2023-03-02T00:08:34.819Z,-0.35
2023-03-02T00:11:01.898Z,-0.36
2023-03-02T00:13:32.507Z,-0.38
2023-03-02T00:15:59.061Z,-0.41
2023-03-02T00:18:25.694Z,-0.40
2023-03-02T00:20:52.165Z,-0.39
2023-03-02T00:23:19.078Z,-0.40
2023-03-02T00:25:45.637Z,-0.41
2023-03-02T00:28:12.169Z,-0.42
2023-03-02T00:30:39.347Z,-0.43
2023-03-02T00:33:05.882Z,-0.44
2023-03-02T00:35:37.391Z,-0.42
2023-03-02T00:38:03.891Z,-0.43
2023-03-02T00:40:30.515Z,-0.45
2023-03-02T00:42:56.934Z,-0.45
2023-03-02T00:45:23.510Z,-0.45
2023-03-02T00:47:50.049Z,-0.44
2023-03-02T00:50:16.847Z,-0.46
2023-03-02T00:52:43.444Z,-0.47
2023-03-02T00:55:09.982Z,-0.46
2023-03-02T00:57:36.807Z,-0.48
2023-03-02T01:00:10.447Z,-0.48
2023-03-02T01:02:43.998Z,-0.50
2023-03-02T01:05:14.559Z,-0.49
2023-03-02T01:07:41.046Z,-0.50
2023-03-02T01:10:08.067Z,-0.50
2023-03-02T01:12:34.869Z,-0.51
2023-03-02T01:15:02.140Z,-0.53
2023-03-02T01:17:28.791Z,-0.55
2023-03-02T01:19:56.313Z,-0.55
2023-03-02T01:22:23.231Z,-0.55
2023-03-02T01:24:50.224Z,-0.56
2023-03-02T01:27:16.847Z,-0.56
2023-03-02T01:29:43.432Z,-0.55
2023-03-02T01:32:09.975Z,-0.56
2023-03-02T01:34:37.980Z,-0.57
2023-03-02T01:37:05.965Z,-0.56
2023-03-02T01:39:32.396Z,-0.57
2023-03-02T01:41:58.819Z,-0.59
2023-03-02T01:44:40.696Z,-0.59
2023-03-02T01:47:18.100Z,-0.58
2023-03-02T01:49:56.977Z,-0.59
2023-03-02T01:52:26.139Z,-0.61
2023-03-02T01:54:57.163Z,-0.62
2023-03-02T01:57:30.457Z,-0.65
2023-03-02T02:00:01.823Z,-0.67
2023-03-02T02:02:41.856Z,-0.67
2023-03-02T02:05:11.946Z,-0.68
2023-03-02T02:07:39.690Z,-0.71
2023-03-02T02:10:07.839Z,-0.72
2023-03-02T02:12:34.676Z,-0.73
2023-03-02T02:15:02.208Z,-0.75
2023-03-02T02:17:30.084Z,-0.77
2023-03-02T02:20:07.148Z,-0.76
2023-03-02T02:22:49.014Z,-0.77
2023-03-02T02:25:24.651Z,-0.78
2023-03-02T02:27:51.647Z,-0.77
2023-03-02T02:30:20.926Z,-0.78
2023-03-02T02:32:49.636Z,-0.78
2023-03-02T02:35:24.421Z,-0.78
2023-03-02T02:37:55.468Z,-0.78
2023-03-02T02:40:40.279Z,-0.79
2023-03-02T02:43:12.547Z,-0.80
2023-03-02T02:45:39.334Z,-0.80
2023-03-02T02:48:08.820Z,-0.81
2023-03-02T02:50:35.839Z,-0.81
2023-03-02T02:53:16.143Z,-0.81
2023-03-02T02:55:44.173Z,-0.81
2023-03-02T02:58:27.589Z,-0.81
2023-03-02T03:00:55.316Z,-0.84
2023-03-02T03:03:32.441Z,-0.83
2023-03-02T03:06:05.669Z,-0.84
2023-03-02T03:08:41.337Z,-0.86
2023-03-02T03:11:24.303Z,-0.88
2023-03-02T03:14:13.393Z,-0.89
2023-03-02T03:16:42.092Z,-0.90
2023-03-02T03:19:20.943Z,-0.90
2023-03-02T03:21:51.456Z,-0.92
2023-03-02T03:24:19.318Z,-0.94
2023-03-02T03:26:47.339Z,-0.94
2023-03-02T03:29:15.702Z,-0.95
2023-03-02T03:31:42.594Z,-0.96
2023-03-02T03:34:10.086Z,-0.95
2023-03-02T03:36:37.425Z,-0.96
2023-03-02T03:39:05.678Z,-0.98
2023-03-02T03:41:33.039Z,-0.99
2023-03-02T03:44:00.014Z,-1.00
2023-03-02T03:46:28.723Z,-1.01
2023-03-02T03:48:55.741Z,-1.01
2023-03-02T03:51:23.592Z,-1.02
2023-03-02T03:53:59.699Z,-1.02
2023-03-02T03:56:34.038Z,-1.04
2023-03-02T03:59:07.713Z,-1.05
2023-03-02T04:01:45.877Z,-1.05
2023-03-02T04:04:15.943Z,-1.06
2023-03-02T04:06:43.216Z,-1.05
2023-03-02T04:09:12.063Z,-1.05
2023-03-02T04:11:41.365Z,-1.02
2023-03-02T04:14:09.000Z,-1.00
2023-03-02T04:16:36.705Z,-0.99
2023-03-02T04:19:04.704Z,-0.98
2023-03-02T04:21:31.454Z,-1.01
2023-03-02T04:23:58.023Z,-1.02
2023-03-02T04:26:26.164Z,-1.03
2023-03-02T04:28:52.823Z,-1.03
2023-03-02T04:31:20.311Z,-1.04
2023-03-02T04:33:46.985Z,-1.03
2023-03-02T04:36:13.742Z,-1.04
2023-03-02T04:38:40.449Z,-1.04
2023-03-02T04:41:07.994Z,-1.04
2023-03-02T04:43:34.666Z,-1.04
2023-03-02T04:46:01.347Z,-1.06
2023-03-02T04:48:27.986Z,-1.08
2023-03-02T04:50:54.526Z,-1.10
2023-03-02T04:53:21.112Z,-1.12
2023-03-02T04:55:47.813Z,-1.14
2023-03-02T04:58:14.819Z,-1.16
2023-03-02T05:00:41.436Z,-1.17
2023-03-02T05:03:08.198Z,-1.19
2023-03-02T05:05:34.943Z,-1.22
2023-03-02T05:08:01.508Z,-1.23
2023-03-02T05:10:28.261Z,-1.25
2023-03-02T05:12:55.183Z,-1.26
2023-03-02T05:15:23.070Z,-1.27
2023-03-02T05:17:49.635Z,-1.29
2023-03-02T05:20:17.398Z,-1.32
2023-03-02T05:22:44.013Z,-1.33
2023-03-02T05:25:11.598Z,-1.34
2023-03-02T05:27:38.457Z,-1.36
2023-03-02T05:30:06.420Z,-1.38
2023-03-02T05:32:32.989Z,-1.39
2023-03-02T05:34:59.523Z,-1.41
2023-03-02T05:37:25.952Z,-1.41
2023-03-02T05:39:52.787Z,-1.41
2023-03-02T05:42:19.222Z,-1.43
2023-03-02T05:44:45.722Z,-1.44
2023-03-02T05:47:12.288Z,-1.44
2023-03-02T05:49:38.993Z,-1.46
2023-03-02T05:52:05.630Z,-1.47
2023-03-02T05:54:32.265Z,-1.49
2023-03-02T05:56:58.866Z,-1.49
2023-03-02T05:59:25.343Z,-1.51
2023-03-02T06:01:58.467Z,-1.52
2023-03-02T06:04:25.972Z,-1.52
2023-03-02T06:06:52.703Z,-1.52
2023-03-02T06:09:19.352Z,-1.54
2023-03-02T06:11:45.996Z,-1.53
2023-03-02T06:14:12.545Z,-1.54
2023-03-02T06:16:39.210Z,-1.55
2023-03-02T06:19:05.828Z,-1.55
2023-03-02T06:21:32.508Z,-1.53
2023-03-02T06:23:58.966Z,-1.56
2023-03-02T06:26:25.532Z,-1.55
2023-03-02T06:28:53.898Z,-1.56
2023-03-02T06:31:21.497Z,-1.57
2023-03-02T06:33:48.088Z,-1.57
2023-03-02T06:36:16.865Z,-1.56
2023-03-02T06:38:43.387Z,-1.56
2023-03-02T06:41:10.076Z,-1.55
2023-03-02T06:43:36.641Z,-1.55
2023-03-02T06:46:03.210Z,-1.53
2023-03-02T06:48:29.654Z,-1.52
2023-03-02T06:50:56.062Z,-1.51
2023-03-02T06:53:23.348Z,-1.50
2023-03-02T06:55:50.718Z,-1.49
2023-03-02T06:58:17.385Z,-1.47
2023-03-02T07:00:44.106Z,-1.46
2023-03-02T07:03:10.640Z,-1.43
2023-03-02T07:05:37.417Z,-1.41
2023-03-02T07:08:04.190Z,-1.38
2023-03-02T07:10:30.792Z,-1.36
2023-03-02T07:12:57.349Z,-1.33
2023-03-02T07:15:23.822Z,-1.31
2023-03-02T07:17:50.245Z,-1.29
2023-03-02T07:20:18.584Z,-1.25
2023-03-02T07:22:45.476Z,-1.21
2023-03-02T07:25:12.597Z,-1.16
2023-03-02T07:27:39.504Z,-1.06
2023-03-02T07:30:07.123Z,-1.01
2023-03-02T07:32:33.901Z,-0.97
2023-03-02T07:35:00.477Z,-0.91
2023-03-02T07:37:27.023Z,-0.86
2023-03-02T07:39:54.352Z,-0.80
2023-03-02T07:42:20.993Z,-0.75
2023-03-02T07:44:54.402Z,-0.68
2023-03-02T07:47:21.192Z,-0.59
2023-03-02T07:49:47.712Z,-0.53
2023-03-02T07:52:15.047Z,-0.50
2023-03-02T07:54:41.531Z,-0.40
2023-03-02T07:57:10.817Z,-0.36
2023-03-02T07:59:37.251Z,-0.29
2023-03-02T08:02:03.739Z,-0.20
2023-03-02T08:04:30.373Z,-0.10
2023-03-02T08:06:56.858Z,-0.03
2023-03-02T08:09:23.343Z,0.05
2023-03-02T08:11:53.139Z,0.11
2023-03-02T08:14:19.634Z,0.19
2023-03-02T08:16:46.225Z,0.24
2023-03-02T08:19:13.006Z,0.31
2023-03-02T08:21:39.646Z,0.39
2023-03-02T08:24:06.464Z,0.49
2023-03-02T08:26:33.564Z,0.58
2023-03-02T08:29:00.174Z,0.66
2023-03-02T08:31:26.773Z,0.75
2023-03-02T08:33:53.553Z,0.80
2023-03-02T08:36:20.295Z,0.91
2023-03-02T08:38:47.968Z,1.01
2023-03-02T08:41:20.280Z,1.09
2023-03-02T08:43:47.439Z,1.17
2023-03-02T08:46:17.468Z,1.26
2023-03-02T08:48:44.236Z,1.31
2023-03-02T08:51:17.022Z,1.39
2023-03-02T08:53:46.271Z,1.47
2023-03-02T08:56:19.387Z,1.55
2023-03-02T08:58:47.127Z,1.60
2023-03-02T09:01:29.726Z,1.62
2023-03-02T09:03:57.652Z,1.63
2023-03-02T09:06:24.268Z,1.67
2023-03-02T09:08:51.400Z,1.76
2023-03-02T09:11:18.374Z,1.84
2023-03-02T09:13:44.917Z,1.95
2023-03-02T09:16:13.151Z,2.04
2023-03-02T09:18:40.242Z,2.03
2023-03-02T09:21:06.706Z,2.06
2023-03-02T09:23:35.407Z,2.12
2023-03-02T09:26:02.644Z,2.10
2023-03-02T09:28:29.496Z,2.17
2023-03-02T09:31:01.269Z,2.23
2023-03-02T09:33:30.530Z,2.30
2023-03-02T09:35:57.348Z,2.36
2023-03-02T09:38:24.387Z,2.41
2023-03-02T09:40:59.756Z,2.47
2023-03-02T09:43:38.493Z,2.54
2023-03-02T09:46:23.450Z,2.59
2023-03-02T09:49:11.865Z,2.74
2023-03-02T09:52:16.600Z,2.80
2023-03-02T09:54:43.302Z,2.84
2023-03-02T09:57:25.448Z,2.94
2023-03-02T10:00:18.163Z,3.04
2023-03-02T10:02:47.973Z,3.13
2023-03-02T10:05:24.659Z,3.21
2023-03-02T10:07:51.506Z,3.28
2023-03-02T10:10:22.838Z,3.38
2023-03-02T10:13:18.431Z,3.43
2023-03-02T10:16:08.146Z,3.47
2023-03-02T10:18:45.601Z,3.59
2023-03-02T10:21:12.087Z,3.70
2023-03-02T10:24:00.975Z,3.81
2023-03-02T10:26:41.113Z,3.87
2023-03-02T10:29:18.681Z,3.90
2023-03-02T10:31:47.064Z,3.95
2023-03-02T10:34:14.237Z,4.00
2023-03-02T10:36:44.690Z,4.11
2023-03-02T10:39:14.176Z,4.22
2023-03-02T10:41:53.217Z,4.29
2023-03-02T10:44:19.722Z,4.33
2023-03-02T10:46:47.044Z,4.40
2023-03-02T10:49:24.134Z,4.45
2023-03-02T10:52:18.545Z,4.50
2023-03-02T10:54:45.625Z,4.58
2023-03-02T10:57:37.077Z,4.70
2023-03-02T11:00:24.771Z,4.73
2023-03-02T11:02:52.495Z,4.77
2023-03-02T11:05:23.844Z,4.89
2023-03-02T11:08:00.479Z,4.99
2023-03-02T11:10:36.625Z,5.04
2023-03-02T11:13:16.526Z,5.14
2023-03-02T11:15:51.239Z,5.28
2023-03-02T11:18:30.925Z,5.41
2023-03-02T11:21:08.323Z,5.42
2023-03-02T11:24:04.155Z,5.48
2023-03-02T11:26:37.414Z,5.51
2023-03-02T11:29:28.700Z,5.60
2023-03-02T11:32:01.170Z,5.67
2023-03-02T11:34:49.390Z,5.73
2023-03-02T11:37:15.821Z,5.78
2023-03-02T11:39:54.964Z,5.84
2023-03-02T11:42:28.499Z,5.88
2023-03-02T11:44:55.291Z,5.94
2023-03-02T11:47:23.078Z,5.99
2023-03-02T11:49:55.976Z,5.99
2023-03-02T11:52:26.142Z,6.02
2023-03-02T11:55:06.280Z,6.09
2023-03-02T11:57:40.056Z,6.09
2023-03-02T12:00:21.826Z,6.17
2023-03-02T12:02:58.903Z,6.22
2023-03-02T12:05:28.721Z,6.33
2023-03-02T12:07:58.788Z,6.40
2023-03-02T12:10:33.059Z,6.42
2023-03-02T12:13:23.247Z,6.46
2023-03-02T12:15:50.740Z,6.54
2023-03-02T12:18:23.151Z,6.60
2023-03-02T12:21:04.682Z,6.60
2023-03-02T12:23:34.298Z,6.63
2023-03-02T12:26:24.617Z,6.69
2023-03-02T12:29:09.591Z,6.72
2023-03-02T12:31:56.739Z,6.79
2023-03-02T12:34:38.109Z,6.81
2023-03-02T12:37:16.158Z,6.82
2023-03-02T12:40:03.855Z,6.85
2023-03-02T12:42:42.303Z,6.94
2023-03-02T12:45:27.051Z,7.05
2023-03-02T12:48:14.437Z,7.14
2023-03-02T12:50:41.819Z,7.18
2023-03-02T12:53:18.664Z,7.22
2023-03-02T12:55:46.153Z,7.27
2023-03-02T12:58:21.098Z,7.25
2023-03-02T13:00:59.560Z,7.30
2023-03-02T13:03:28.669Z,7.35
2023-03-02T13:06:13.723Z,7.36
2023-03-02T13:08:44.606Z,7.40
2023-03-02T13:11:12.148Z,7.43
2023-03-02T13:13:40.408Z,7.46
2023-03-02T13:16:20.960Z,7.46
2023-03-02T13:18:49.762Z,7.51
2023-03-02T13:21:18.858Z,7.53
2023-03-02T13:23:48.741Z,7.57
2023-03-02T13:26:34.204Z,7.62
2023-03-02T13:29:03.583Z,7.67
2023-03-02T13:31:31.927Z,7.65
2023-03-02T13:33:59.417Z,7.65
2023-03-02T13:36:29.302Z,7.67
2023-03-02T13:38:59.270Z,7.67
2023-03-02T13:41:31.963Z,7.71
2023-03-02T13:43:59.507Z,7.69
2023-03-02T13:46:35.718Z,7.65
2023-03-02T13:49:10.782Z,7.62
2023-03-02T13:51:46.642Z,7.61
2023-03-02T13:54:22.150Z,7.60
2023-03-02T13:56:51.202Z,7.61
2023-03-02T13:59:19.919Z,7.63
2023-03-02T14:01:46.945Z,7.66
2023-03-02T14:04:17.508Z,7.65
2023-03-02T14:06:45.026Z,7.62
2023-03-02T14:09:11.623Z,7.67
2023-03-02T14:11:42.028Z,7.69
2023-03-02T14:14:14.316Z,7.70
2023-03-02T14:16:41.531Z,7.69
2023-03-02T14:19:10.634Z,7.65
2023-03-02T14:21:37.281Z,7.63
2023-03-02T14:24:03.939Z,7.59
2023-03-02T14:26:45.584Z,7.60
2023-03-02T14:29:31.556Z,7.61
2023-03-02T14:32:06.550Z,7.59
2023-03-02T14:34:36.113Z,7.60
2023-03-02T14:37:10.944Z,7.61
2023-03-02T14:39:39.877Z,7.63
2023-03-02T14:42:12.342Z,7.63
2023-03-02T14:44:39.358Z,7.59
2023-03-02T14:47:05.909Z,7.51
2023-03-02T14:49:32.681Z,7.47
2023-03-02T14:52:05.504Z,7.45
2023-03-02T14:54:39.879Z,7.46
2023-03-02T14:57:16.914Z,7.45
2023-03-02T14:59:43.409Z,7.41
2023-03-02T15:02:24.268Z,7.39
2023-03-02T15:04:56.018Z,7.36
2023-03-02T15:07:23.871Z,7.40
2023-03-02T15:09:50.432Z,7.43
2023-03-02T15:12:16.876Z,7.45
2023-03-02T15:14:43.974Z,7.45
2023-03-02T15:17:10.698Z,7.42
2023-03-02T15:19:37.169Z,7.38
2023-03-02T15:22:04.604Z,7.36
2023-03-02T15:24:33.247Z,7.34
2023-03-02T15:27:00.185Z,7.31
2023-03-02T15:29:26.704Z,7.28
2023-03-02T15:31:53.438Z,7.26
2023-03-02T15:34:20.077Z,7.23
2023-03-02T15:36:46.531Z,7.21
2023-03-02T15:39:14.363Z,7.18
2023-03-02T15:41:42.263Z,7.15
2023-03-02T15:44:17.252Z,7.14
2023-03-02T15:46:43.755Z,7.11
2023-03-02T15:49:10.270Z,7.07
2023-03-02T15:51:36.777Z,7.03
2023-03-02T15:54:03.336Z,6.98
2023-03-02T15:56:38.751Z,6.97
2023-03-02T15:59:10.121Z,6.97
2023-03-02T16:01:36.836Z,6.95
2023-03-02T16:04:03.314Z,6.93
2023-03-02T16:06:30.290Z,6.91
2023-03-02T16:08:56.813Z,6.88
2023-03-02T16:11:23.396Z,6.86
2023-03-02T16:13:52.179Z,6.83
2023-03-02T16:16:20.593Z,6.80
2023-03-02T16:18:58.431Z,6.79
2023-03-02T16:21:28.405Z,6.75
2023-03-02T16:23:56.297Z,6.71
2023-03-02T16:26:23.048Z,6.66
2023-03-02T16:28:49.555Z,6.63
2023-03-02T16:31:19.043Z,6.59
2023-03-02T16:33:47.185Z,6.53
2023-03-02T16:36:14.621Z,6.46
2023-03-02T16:38:41.760Z,6.40
2023-03-02T16:41:20.380Z,6.33
2023-03-02T16:43:49.956Z,6.29
2023-03-02T16:46:17.381Z,6.24
2023-03-02T16:48:45.222Z,6.20
2023-03-02T16:51:12.465Z,6.16
2023-03-02T16:53:40.686Z,6.09
2023-03-02T16:56:11.856Z,6.06
2023-03-02T16:58:39.712Z,5.98
2023-03-02T17:01:07.986Z,5.93
2023-03-02T17:03:35.126Z,5.88
2023-03-02T17:06:01.890Z,5.81
2023-03-02T17:08:28.466Z,5.76
2023-03-02T17:10:54.950Z,5.70
2023-03-02T17:13:21.380Z,5.64
2023-03-02T17:15:48.048Z,5.59
2023-03-02T17:18:17.219Z,5.53
2023-03-02T17:20:43.785Z,5.48
2023-03-02T17:23:12.323Z,5.43
2023-03-02T17:25:39.572Z,5.39
2023-03-02T17:28:06.512Z,5.34
2023-03-02T17:30:33.092Z,5.28
2023-03-02T17:32:59.575Z,5.22
2023-03-02T17:35:26.374Z,5.17
2023-03-02T17:37:53.191Z,5.12
2023-03-02T17:40:19.869Z,5.07
2023-03-02T17:42:46.371Z,5.01
2023-03-02T17:45:21.303Z,4.98
2023-03-02T17:47:50.137Z,4.92
2023-03-02T17:50:17.040Z,4.87
2023-03-02T17:52:43.966Z,4.83
2023-03-02T17:55:11.844Z,4.78
2023-03-02T17:57:38.377Z,4.74
2023-03-02T18:00:09.764Z,4.70
2023-03-02T18:02:36.278Z,4.67
2023-03-02T18:05:04.065Z,4.62
2023-03-02T18:07:30.515Z,4.58
2023-03-02T18:09:56.997Z,4.55
2023-03-02T18:12:23.504Z,4.50
2023-03-02T18:14:49.985Z,4.47
2023-03-02T18:17:16.710Z,4.43
2023-03-02T18:19:43.187Z,4.39
2023-03-02T18:22:10.107Z,4.35
2023-03-02T18:24:36.551Z,4.31
2023-03-02T18:27:03.006Z,4.27
2023-03-02T18:29:29.510Z,4.24
2023-03-02T18:31:56.068Z,4.20
2023-03-02T18:34:22.594Z,4.15
2023-03-02T18:36:49.074Z,4.13
2023-03-02T18:39:18.367Z,4.08
2023-03-02T18:41:44.794Z,4.05
2023-03-02T18:44:11.352Z,4.01
2023-03-02T18:46:45.545Z,3.98
2023-03-02T18:49:12.050Z,3.94
2023-03-02T18:51:38.565Z,3.91
2023-03-02T18:54:05.048Z,3.87
2023-03-02T18:56:31.529Z,3.83
2023-03-02T18:58:58.026Z,3.80
2023-03-02T19:01:24.457Z,3.75
2023-03-02T19:03:50.914Z,3.72
2023-03-02T19:06:17.561Z,3.69
2023-03-02T19:08:44.090Z,3.65
2023-03-02T19:11:11.648Z,3.62
2023-03-02T19:13:38.188Z,3.58
2023-03-02T19:16:05.130Z,3.55
2023-03-02T19:18:31.771Z,3.52
2023-03-02T19:20:58.358Z,3.50
2023-03-02T19:23:25.084Z,3.48
2023-03-02T19:25:52.171Z,3.45
2023-03-02T19:28:19.076Z,3.41
2023-03-02T19:30:45.519Z,3.37
2023-03-02T19:33:12.074Z,3.34
2023-03-02T19:35:38.865Z,3.29
2023-03-02T19:38:06.598Z,3.25
2023-03-02T19:40:34.369Z,3.22
2023-03-02T19:43:01.135Z,3.18
2023-03-02T19:45:30.170Z,3.14
2023-03-02T19:47:57.814Z,3.10
2023-03-02T19:50:26.187Z,3.07
2023-03-02T19:52:54.689Z,3.03
2023-03-02T19:55:22.247Z,3.00
2023-03-02T19:57:59.274Z,2.97
2023-03-02T20:00:27.873Z,2.95
2023-03-02T20:02:54.541Z,2.91
2023-03-02T20:05:21.131Z,2.89
2023-03-02T20:07:47.698Z,2.86
2023-03-02T20:10:45.697Z,2.83
2023-03-02T20:13:12.948Z,2.78
2023-03-02T20:15:44.230Z,2.75
2023-03-02T20:18:17.400Z,2.71
2023-03-02T20:20:45.101Z,2.70
2023-03-02T20:23:12.189Z,2.66
2023-03-02T20:25:38.739Z,2.64
2023-03-02T20:28:07.488Z,2.61
2023-03-02T20:30:40.959Z,2.58
2023-03-02T20:33:08.311Z,2.55
2023-03-02T20:35:39.847Z,2.52
2023-03-02T20:38:10.269Z,2.49
2023-03-02T20:40:37.180Z,2.45
2023-03-02T20:43:05.463Z,2.43
2023-03-02T20:45:32.683Z,2.43
2023-03-02T20:47:59.211Z,2.40
2023-03-02T20:50:29.340Z,2.36
2023-03-02T20:52:55.902Z,2.33
2023-03-02T20:55:22.643Z,2.32
2023-03-02T20:57:49.145Z,2.30
2023-03-02T21:00:20.683Z,2.28
2023-03-02T21:02:48.432Z,2.25
2023-03-02T21:05:16.837Z,2.22
2023-03-02T21:07:44.468Z,2.21
2023-03-02T21:10:15.156Z,2.20
2023-03-02T21:12:42.940Z,2.17
2023-03-02T21:15:10.450Z,2.13
2023-03-02T21:17:36.919Z,2.10
2023-03-02T21:20:05.107Z,2.07
2023-03-02T21:22:31.626Z,2.04
2023-03-02T21:24:58.154Z,2.03
2023-03-02T21:27:24.686Z,1.99
2023-03-02T21:29:51.189Z,1.97
2023-03-02T21:32:17.861Z,1.96
2023-03-02T21:34:44.825Z,1.94
2023-03-02T21:37:11.392Z,1.94
2023-03-02T21:39:38.127Z,1.91
2023-03-02T21:42:04.776Z,1.89
2023-03-02T21:44:32.079Z,1.87
2023-03-02T21:46:58.570Z,1.84
2023-03-02T21:49:25.043Z,1.83
2023-03-02T21:51:51.570Z,1.79
2023-03-02T21:54:18.092Z,1.77
2023-03-02T21:56:44.680Z,1.75
2023-03-02T21:59:11.986Z,1.73
2023-03-02T22:01:38.542Z,1.71
2023-03-02T22:04:05.585Z,1.69
2023-03-02T22:06:34.298Z,1.66
2023-03-02T22:09:01.543Z,1.64
2023-03-02T22:11:31.898Z,1.63
2023-03-02T22:14:10.418Z,1.61
2023-03-02T22:16:43.125Z,1.60
2023-03-02T22:19:26.798Z,1.58
2023-03-02T22:21:59.911Z,1.56
2023-03-02T22:24:32.414Z,1.55
2023-03-02T22:27:27.090Z,1.56
2023-03-02T22:29:57.672Z,1.55
2023-03-02T22:32:28.026Z,1.54
2023-03-02T22:34:57.081Z,1.52
2023-03-02T22:37:26.877Z,1.49
2023-03-02T22:39:55.654Z,1.48
2023-03-02T22:42:24.851Z,1.46
2023-03-02T22:45:26.409Z,1.43
2023-03-02T22:47:53.983Z,1.40
2023-03-02T22:50:26.798Z,1.38
2023-03-02T22:52:55.535Z,1.36
2023-03-02T22:55:35.395Z,1.32
2023-03-02T22:58:20.528Z,1.29
2023-03-02T23:00:47.880Z,1.26
2023-03-02T23:03:19.590Z,1.25
2023-03-02T23:05:49.185Z,1.21
2023-03-02T23:08:28.527Z,1.20
2023-03-02T23:10:58.463Z,1.16
2023-03-02T23:13:40.518Z,1.15
2023-03-02T23:16:21.939Z,1.12
2023-03-02T23:18:49.524Z,1.09
2023-03-02T23:21:49.524Z,1.08
2023-03-02T23:24:18.840Z,1.05
2023-03-02T23:26:45.426Z,0.99
2023-03-02T23:29:12.079Z,0.98
2023-03-02T23:31:38.627Z,0.95
2023-03-02T23:34:05.465Z,0.92
2023-03-02T23:36:32.026Z,0.91
2023-03-02T23:38:58.669Z,0.88
2023-03-02T23:41:25.262Z,0.85
2023-03-02T23:43:51.862Z,0.82
2023-03-02T23:46:18.432Z,0.80
2023-03-02T23:48:44.873Z,0.79
2023-03-02T23:51:11.671Z,0.76
2023-03-02T23:53:38.103Z,0.73
2023-03-02T23:56:04.822Z,0.71
2023-03-02T23:58:31.411Z,0.69
